Christophe Chevalier

Olheiro-Chefe - FC Nantes
23 Out 2027
Sábado
Processo

Personalidade

Adaptabilidade (15) Ambição (15) Controvérsia (16) Lealdade (18) Pressão (1) Profissionalismo (2) Espírito Esportivo (7) Temperamento (4)

Perfil

Estilo de Treinamento Democrático
Licença Nacional B
Determinação 13
Gestão de Pessoas 14
Motivação 12
Disciplina 6
Satisfação no Trabalho
100%
Fadiga
0%
Função Olheiro-Chefe
Salário 20.9K p/s
Contrato 14.03.2030

Desempenho

Comportamento Bom
Eficácia do Treinamento
45%
Desenvolvimento do Jogador
35%
Prevenção de Lesões
55%
Implementação Tática
70%

Eventos Recentes

Participou de uma reunião de recrutamento 7d atrás
Recomendou um alvo de transferência 7d atrás
Participou de uma reunião de recrutamento 14d atrás
Recomendou um alvo de transferência 14d atrás
Participou de uma reunião de recrutamento 21d atrás
Recomendou um alvo de transferência 21d atrás
Participou de uma reunião de recrutamento 28d atrás
Recomendou um alvo de transferência 28d atrás

Monitorando agora

175
Jogador Clube Status Habilidade Confiança Observado Última observação Último voto
Miloš Luković AC Ajaccio Ativo 139 / 144 52% 1 / 1m 15.09.2027 -
Rémi Himbert AC Ajaccio Ativo 121 / 126 42% 1 / 1m 15.09.2027 -
Javier Altamirano Universidad de Chile Ativo 128 / 122 40% 1 23.08.2027 -
Allan Saint-Maximin Charlotte Football Club Perdido 147 / 143 40% 1 23.08.2027 -
Martín Ojeda Orlando City Ativo 137 / 137 40% 1 23.08.2027 -
Mateo Silvetti Inter Miami CF Ativo 129 / 129 40% 1 18.08.2027 -
Alan Morinigo Olimpia Ativo 116 / 120 40% 1 18.08.2027 -
Sergio Castillo Cortulua Ativo 105 / 110 40% 1 18.08.2027 -
Yeremay Deportivo La Coruña Ativo 149 / 151 40% 1 10.08.2027 -
Manu Fuster Las Palmas Ativo 139 / 133 40% 1 10.08.2027 -
Mathis Jangeal Famalicao Ativo 102 / 109 40% 2 02.08.2027 -
Jones El-Abdellaoui Celta Ativo 133 / 137 40% 1 02.08.2027 -
Renzo Machado Penarol Ativo 113 / 116 40% 1 02.08.2027 -
Pathé Mboup Stade Brestois Perdido 122 / 128 90% 1 26.07.2027 Aprovar
Nordi Mukiele Sunderland Ativo 147 / 147 40% 10 29.05.2027 -
Ramón Terrats Getafe Ativo 140 / 144 40% 4 29.05.2027 -
Nobel Mendy Hull City Ativo 133 / 135 40% 2 29.05.2027 -
Olivier Boscagli Brighton Ativo 147 / 147 40% 20 28.05.2027 -
Tiago Santos LOSC Lille Ativo 144 / 145 40% 8 28.05.2027 -
Arthur Atta Fiorentina Ativo 141 / 143 40% 8 27.05.2027 -
Shea Charles Southampton Ativo 138 / 141 40% 1 27.05.2027 -
Imrân Louza Watford Ativo 133 / 128 40% 4 26.05.2027 -
Milan van Ewijk Coventry City Ativo 131 / 135 40% 3 26.05.2027 -
Ilay Camara Anderlecht Ativo 133 / 129 40% 9 25.05.2027 -
Tyrell Malacia Derby County Ativo 137 / 134 40% 4 25.05.2027 -
Matthieu Udol RC Lens Ativo 138 / 138 40% 7 25.05.2027 -
Oumar Solet Udinese Ativo 149 / 148 40% 11 24.05.2027 -
Max Johnston Derby County Ativo 127 / 130 40% 1 24.05.2027 -
Elia Summa Picerno Ativo 113 / 113 40% 2 23.05.2027 -
Filip Marschall Stevenage Ativo 114 / 112 40% 2 23.05.2027 -
Soungoutou Magassa West Ham United Ativo 136 / 134 40% 3 23.05.2027 -
Strahinja Manojlović Radnicki Nis Ativo 107 / 106 40% 3 23.05.2027 -
Tariq Lamptey Queens Park Rangers Ativo 137 / 133 40% 1 23.05.2027 -
Antonio Gomis Vizela Ativo 122 / 127 40% 2 22.05.2027 -
William Rovida Pro Patria Ativo 105 / 109 40% 1 22.05.2027 -
Vanderson Monaco Ativo 143 / 145 40% 6 21.05.2027 -
Amadou Haïdara RC Lens Ativo 142 / 141 40% 10 21.05.2027 -
Kenny Tete Fulham Ativo 143 / 145 40% 1 21.05.2027 -
Ismaël Bennacer Olympique de Marseille Ativo 149 / 148 40% 10 18.05.2027 -
Denis Zakaria Monaco Ativo 150 / 148 40% 3 18.05.2027 -
Jacques Ekomié Wrexham Ativo 128 / 128 40% 2 18.05.2027 -
Adrien Truffert Bournemouth Ativo 151 / 148 40% 14 17.05.2027 -
Óscar Mingueza Crystal Palace Ativo 151 / 149 40% 7 16.05.2027 -
Anton Zhylkin Karpaty Ativo 102 / 111 40% 4 16.05.2027 -
Svetoslav Vutsov Levski Ativo 128 / 133 40% 3 16.05.2027 -
Nathan Collins Brentford Ativo 147 / 147 40% 3 16.05.2027 -
Romain Perraud LOSC Lille Ativo 136 / 136 40% 13 14.05.2027 -
Ethan Galbraith Swansea City Ativo 133 / 132 40% 3 14.05.2027 -
Tyler Adams Bournemouth Ativo 152 / 148 40% 2 12.05.2027 -
Manu Koné AS Roma Ativo 165 / 160 40% 10 10.05.2027 -
Killian Cahill Leyton Orient Ativo 106 / 108 40% 6 09.05.2027 -
Guillaume Restes Toulouse FC Ativo 135 / 141 40% 4 08.05.2027 -
Diogo Pinto Santa Clara Ativo 105 / 109 40% 3 08.05.2027 -
Lorenzo Cordaro Pergolettese Ativo 99 / 101 40% 2 08.05.2027 -
Ferland Mendy Olympique de Marseille Ativo 142 / 145 40% 11 06.05.2027 -
Alex Scott Bournemouth Ativo 149 / 150 40% 2 04.05.2027 -
Boubacar Kamara Aston Villa Ativo 163 / 162 40% 14 02.05.2027 -
Pierre-Emile Højbjerg Olympique de Marseille Ativo 147 / 142 40% 3 01.05.2027 -
Diego Coppola Paris FC Ativo 140 / 147 40% 4 27.04.2027 -
Abner Vinicius Olympique Lyonnais Ativo 137 / 132 40% 4 27.04.2027 -
Samuele Vitale Ascoli Ativo 110 / 109 40% 2 27.04.2027 -
Deniz Ertaş Konyaspor Ativo 125 / 130 40% 1 27.04.2027 -
Roger François Udinese Ativo 144 / 145 40% 7 25.04.2027 -
Hugo Magnetti Stade Brestois Ativo 137 / 141 40% 3 25.04.2027 -
Tom Booth Crewe Alexandra Ativo 103 / 106 40% 1 22.04.2027 -
Florentino Luís Ipswich Town Ativo 142 / 138 40% 1 22.04.2027 -
Jordan Teze Monaco Ativo 136 / 141 40% 8 21.04.2027 -
Elia Boseggia Novara Ativo 108 / 113 40% 4 20.04.2027 -
Marvin Keller Racing Genk Ativo 144 / 141 40% 3 20.04.2027 -
Lucas Da Cunha Como Ativo 145 / 141 40% 8 17.04.2027 -
Bradley Locko Stade Brestois Ativo 135 / 137 40% 2 15.04.2027 -
Frédéric Perrot Union Berlin Ativo 131 / 133 40% 1 09.04.2027 -
Lamine Camara Monaco Ativo 142 / 144 40% 2 08.04.2027 -
Alexsandro Ribeiro LOSC Lille Ativo 149 / 149 40% 7 08.04.2027 -
Hicham Boudaoui OGC Nice Ativo 138 / 138 40% 3 04.04.2027 -
Sławomir Abramowicz Jagiellonia Ativo 128 / 121 40% 4 04.04.2027 -
Ismaël Doukouré RC Strasbourg Ativo 141 / 141 40% 2 04.04.2027 -
Jakub Surovčík Sparta Prague Ativo 114 / 119 40% 1 04.04.2027 -
Valerio Boffelli Cavese Ativo 99 / 105 40% 3 03.04.2027 -
Xaver Schlager Nottingham Forest Ativo 150 / 146 40% 1 02.04.2027 -
Clément Akpa AJ Auxerre Ativo 132 / 133 40% 2 28.03.2027 -
James Trafford Leeds United Ativo 143 / 144 40% 2 28.03.2027 -
Lorenzo Palmisani Frosinone Ativo 127 / 135 40% 3 28.03.2027 -
Francesco D'Alterio Ternana Ativo 106 / 106 40% 3 27.03.2027 -
Cristian Cásseres Toulouse FC Ativo 135 / 130 40% 1 23.03.2027 -
Matteo Rizzo Cosenza Ativo 104 / 113 40% 1 22.03.2027 -
Axel Tuanzebe AJ Auxerre Ativo 130 / 127 40% 1 20.03.2027 -
Nayef Aguerd Olympique de Marseille Ativo 139 / 143 40% 4 18.03.2027 -
Jan Paul van Hecke Tottenham Ativo 156 / 158 40% 1 18.03.2027 -
Matteo Dams Club Brugge Ativo 130 / 131 40% 4 16.03.2027 -
Denys Ihnatenko Livyi Bereh Ativo 108 / 108 40% 2 14.03.2027 -
Habib Diarra Sunderland Ativo 142 / 142 40% 1 11.03.2027 -
Warren Zaïre-Emery Paris Saint-Germain Ativo 152 / 164 40% 1 09.03.2027 -
Adrien Rabiot AC Milan Ativo 156 / 159 40% 3 02.03.2027 -
Heorhii Yermakov Metalist Ativo 121 / 122 40% 2 27.02.2027 -
Théo Hernández Al-Hilal Ativo 148 / 146 40% 4 26.02.2027 -
Kostantis Tzolakis Hull City Ativo 142 / 139 40% 2 24.02.2027 -
Tomáš Frühwald Bohemians 1905 Ativo 107 / 109 40% 1 24.02.2027 -
Antoine Bernard Chamois Niortais Ativo 142 / 136 40% 3 22.02.2027 -
Alexandr Koryakin Krasnodar Ativo 115 / 112 40% 2 22.02.2027 -
Fedor Lapoukhov CSKA Sofia Ativo 123 / 124 40% 1 22.02.2027 -
Amadou Onana Newcastle United Ativo 157 / 154 40% 1 14.02.2027 -
Josh Keeley Luton Town Ativo 123 / 127 40% 2 12.02.2027 -
Malang Sarr RC Lens Ativo 137 / 135 40% 1 08.02.2027 -
Ivan Pakholiuk Kolos Ativo 112 / 122 40% 1 08.02.2027 -
Rubén Duarte Pumas UNAM Ativo 129 / 136 40% 1 02.02.2027 -
Robin Risser RC Lens Ativo 143 / 140 40% 1 25.01.2027 -
Ferran Torres Paris Saint-Germain Ativo 169 / 162 40% 1 04.01.2027 -
Marley Aké Zulte Waregem Ativo 118 / 118 40% 1 04.01.2027 -
Léo Pétrot Anderlecht Ativo 128 / 126 40% 5 01.01.2027 -
Stanislav Agkatsev TSG Hoffenheim Negociando 132 / 133 66% 1 01.01.2027 Aprovar
Ismaïla Sarr Crystal Palace Ativo 154 / 151 40% 1 31.12.2026 -
Cheick Oumar Souaré Viktoria Plzen Ativo 126 / 124 40% 2 30.12.2026 -
Pathé Ciss Cruz Azul Ativo 146 / 135 40% 4 29.12.2026 -
Valentin Rongier Stade Rennais Ativo 144 / 143 40% 1 27.12.2026 -
Mohammed El Hankouri Standard Liege Ativo 124 / 130 40% 3 25.12.2026 -
Dimitri Lavalée Standard Liege Ativo 130 / 126 40% 2 25.12.2026 -
Serge Daura Dynamo Douala Ativo 98 / 97 40% 1 24.12.2026 -
Nacim Dendani Dijon Ativo 92 / 102 40% 1 24.12.2026 -
Adilson Malanda Middlesbrough Ativo 124 / 130 40% 1 21.12.2026 -
Ryan Sessegnon Fulham Ativo 145 / 148 40% 1 19.12.2026 -
El Hadji Malick Diouf Brentford Ativo 140 / 145 40% 1 18.12.2026 -
Yacine Adli Al-Shabab Ativo 137 / 135 40% 1 18.12.2026 -
Khéphren Thuram Juventus Ativo 158 / 159 40% 2 16.12.2026 -
Shandre Campbell KV Kortrijk Ativo 113 / 120 40% 2 15.12.2026 -
Moussa Niakhaté Olympique Lyonnais Ativo 137 / 143 40% 1 15.12.2026 -
Moïse Bombito OGC Nice Ativo 136 / 132 40% 2 12.12.2026 -
Pierre Kalulu Juventus Ativo 154 / 154 40% 1 10.12.2026 -
Joaquin Seys Club Brugge Ativo 126 / 128 40% 1 09.12.2026 -
Youssouf Ndayishimiye OGC Nice Ativo 142 / 133 40% 2 08.12.2026 -
Serge-Philippe Raux-Yao Rapid Wien Ativo 125 / 128 40% 2 08.12.2026 -
Mohamed Simakan Al-Nassr Ativo 141 / 143 40% 1 07.12.2026 -
Senny Mayulu Paris Saint-Germain Ativo 143 / 152 40% 2 06.12.2026 -
Matías Contrera Northampton Town Ativo 96 / 106 40% 1 06.12.2026 -
Thorgan Castagne KV Oostende Ativo 124 / 120 40% 1 06.12.2026 -
Kevin Fulham Ativo 149 / 144 40% 1 06.12.2026 -
Arno Verschueren Waasland-Beveren Ativo 127 / 125 40% 5 01.12.2026 -
Marquinhos Paris Saint-Germain Ativo 164 / 162 40% 1 01.12.2026 -
Willian Pacho Juventus Ativo 163 / 165 40% 5 30.11.2026 -
Alexei Dominguez Pachuca Ativo 111 / 118 40% 2 28.11.2026 -
William Balikwisha OH Leuven Ativo 118 / 114 40% 1 28.11.2026 -
Sidiki Chérif Coventry City Ativo 123 / 133 40% 2 24.11.2026 -
Vitinha Paris Saint-Germain Ativo 176 / 182 40% 6 20.11.2026 -
Nuno Mendes Paris Saint-Germain Ativo 168 / 163 40% 4 12.11.2026 -
Marco Kana Anderlecht Ativo 124 / 129 40% 1 10.11.2026 -
Noussair Mazraoui Manchester United Ativo 152 / 151 40% 4 09.11.2026 -
Marlon Fossey Standard Liege Ativo 128 / 128 40% 1 08.11.2026 -
Achraf Hakimi Paris Saint-Germain Ativo 177 / 174 40% 1 07.11.2026 -
Aiham Ousou Charleroi Ativo 128 / 127 40% 3 04.11.2026 -
Ilias Sebaoui Sint-Truiden Ativo 125 / 125 40% 1 04.11.2026 -
Enzo Le Fée Sunderland Ativo 138 / 134 40% 1 04.11.2026 -
Mihailo Ivanović Millwall Ativo 123 / 125 40% 2 01.11.2026 -
Mathys Tel Stade Rennais Ativo 143 / 148 40% 2 31.10.2026 -
Tyler Morton Olympique Lyonnais Ativo 138 / 139 40% 2 28.10.2026 -
Oumar Camara Vitoria Guimaraes Ativo 116 / 133 40% 3 26.10.2026 -
Freddie Potts Club Brugge Ativo 134 / 134 40% 1 23.10.2026 -
Stefanos Tzimas Brighton Ativo 134 / 144 40% 2 15.10.2026 -
Sandro Tonali Tottenham Ativo 175 / 168 40% 1 15.10.2026 -
Jocelin Ta Bi Sunderland Ativo 109 / 118 40% 1 15.10.2026 -
Archie Goodwin Charlotte Football Club Ativo 107 / 105 40% 1 13.10.2026 -
Mike Eerdhuijzen KV Mechelen Ativo 126 / 126 40% 2 10.10.2026 -
Louis Prévost Tours Perdido 124 / 120 40% 1 09.10.2026 -
Shunsuke Saito Westerlo Ativo 96 / 98 40% 2 08.10.2026 -
Ichem Ferrah Pisa Ativo 106 / 111 40% 3 08.10.2026 -
Deivid Washington RC Strasbourg Ativo 111 / 126 40% 3 02.10.2026 -
Sam Amo-Ameyaw RC Strasbourg Ativo 125 / 132 40% 1 30.09.2026 -
Tiziano Dornell Almagro Ativo 111 / 123 40% 1 28.09.2026 -
Trévis Dago Stade Lavallois Ativo 104 / 114 40% 2 19.09.2026 -
Ryan Oné Sheffield United Ativo 109 / 119 40% 1 17.09.2026 -
Luca Monticelli Lokeren Ativo 93 / 101 40% 1 13.09.2026 -
Agustín Ruberto River Plate Ativo 116 / 132 40% 1 10.09.2026 -
Issa Diop Ipswich Town Ativo 129 / 132 40% 1 08.09.2026 -
Gavin Bazunu Southampton Ativo 122 / 124 40% 1 17.08.2026 -
Esteban Lepaul Stade Rennais Ativo 131 / 141 40% 1 10.08.2026 -
Bradley Barcola Liverpool Ativo 156 / 159 40% 1 01.08.2026 -